KSSC/SSC METAR and TAF weather

Enter ICAO airport designator
Station Type Date Time Source
KSSC METAR 2022/01/23 10:56 UTC NOAA

KSSC 231056Z AUTO 00000KT 10SM CLR M06/M08 A3013 RMK AO2 SLP207 T10621079 $


Station Type Date Time Source
KSSC Decoded METAR 2022/01/23 10:56 UTC NOAA

Shaw Air Force Base, SC, United States (KSSC) 33-58N 080-29W 73M
Jan 23, 2022 - 05:56 AM EST / 2022.01.23 1056 UTC
Wind: Calm:0
Visibility: 10 mile(s):0
Sky conditions: clear
Temperature: 20.8 F (-6.2 C)
Dew Point: 17.8 F (-7.9 C)
Relative Humidity: 87%
Pressure (altimeter): 30.13 in. Hg (1020 hPa)
ob: KSSC 231056Z AUTO 00000KT 10SM CLR M06/M08 A3013 RMK AO2 SLP207 T10621079
cycle: 11

Station Type Date Time Source
KSSC TAF 2022/01/23 08:59 UTC NOAA

TAF KSSC 230800Z 2308/2414 VRB06KT 9999 SKC QNH3017INS
BECMG 2317/2318 23006KT 9999 SKC QNH3001INS TX10/2321Z TNM07/2311Z LAST NO
AMDS AFT 2308 NEXT 2316

Example: see airport list